Lindsay, Texas
Current Conditions -  °F | °C
As of 8:35 PM on Thursday 20 Nov 2014 (Local Time) from KGLE Reporting Station
Clear Clear  
Wind Chill: 55°   Ceiling: Unl
Heat Index: 55°   Visibility: 10mi
Dew Point: 47°   Wind: 7mph
Humidity: 75%   Direction: 110°ESE
Pressure: 30.04"   Gusts: NA
Location:  33.64°N, 97.22°W
Report Text: KGLE 210235Z AUTO 11006KT 10SM CLR 13/08 A3004 RMK AO2 T01250081
Loading
Personal Weather Stations






























Interactive Weather Map New forecast layout! Learn more

10-Day Weather Forecast

Advertisements
Track Severe Weather on mobile